createdAt,value
2023-02-02T00:01:20.123Z,85671.28
2023-02-02T00:03:47.130Z,85668.66
2023-02-02T00:06:14.093Z,85661.66
2023-02-02T00:08:40.946Z,85675.38
2023-02-02T00:11:08.183Z,85666.50
2023-02-02T00:13:35.069Z,85663.09
2023-02-02T00:16:20.592Z,85665.84
2023-02-02T00:18:48.637Z,85652.28
2023-02-02T00:21:15.518Z,85657.66
2023-02-02T00:23:42.386Z,85656.75
2023-02-02T00:26:09.657Z,85654.63
2023-02-02T00:28:36.793Z,85654.56
2023-02-02T00:31:03.660Z,85653.31
2023-02-02T00:33:30.534Z,85656.13
2023-02-02T00:35:58.016Z,85657.50
2023-02-02T00:38:25.084Z,85649.31
2023-02-02T00:40:52.659Z,85640.56
2023-02-02T00:43:19.483Z,85637.41
2023-02-02T00:45:47.207Z,85644.22
2023-02-02T00:48:14.060Z,85642.84
2023-02-02T00:50:41.007Z,85650.97
2023-02-02T00:53:07.923Z,85650.38
2023-02-02T00:55:34.780Z,85644.34
2023-02-02T00:58:01.701Z,85651.88
2023-02-02T01:00:28.784Z,85651.13
2023-02-02T01:02:56.290Z,85657.88
2023-02-02T01:05:26.568Z,85652.56
2023-02-02T01:07:53.494Z,85659.25
2023-02-02T01:10:20.438Z,85652.28
2023-02-02T01:12:47.225Z,85648.28
2023-02-02T01:15:14.127Z,85638.03
2023-02-02T01:17:41.514Z,85647.66
2023-02-02T01:20:08.965Z,85638.34
2023-02-02T01:22:35.812Z,85639.75
2023-02-02T01:25:05.110Z,85639.72
2023-02-02T01:27:32.031Z,85643.09
2023-02-02T01:29:59.165Z,85636.41
2023-02-02T01:32:26.020Z,85641.16
2023-02-02T01:34:52.843Z,85637.75
2023-02-02T01:37:19.753Z,85639.25
2023-02-02T01:39:46.625Z,85643.22
2023-02-02T01:42:19.434Z,85627.69
2023-02-02T01:44:58.568Z,85630.50
2023-02-02T01:47:27.224Z,85629.66
2023-02-02T01:49:55.395Z,85639.13
2023-02-02T01:52:24.492Z,85647.00
2023-02-02T01:55:00.873Z,85641.97
2023-02-02T01:57:30.821Z,85642.16
2023-02-02T01:59:59.186Z,85643.41
2023-02-02T02:02:27.878Z,85637.50
2023-02-02T02:04:55.594Z,85636.75
2023-02-02T02:07:23.743Z,85632.50
2023-02-02T02:09:50.544Z,85647.19
2023-02-02T02:12:17.588Z,85639.25
2023-02-02T02:15:04.611Z,85640.63
2023-02-02T02:17:31.959Z,85642.06
2023-02-02T02:20:56.463Z,85635.66
2023-02-02T02:24:01.368Z,85639.38
2023-02-02T02:26:46.875Z,85643.13
2023-02-02T02:29:15.026Z,85643.34
2023-02-02T02:31:51.311Z,85644.06
2023-02-02T02:34:22.528Z,85644.97
2023-02-02T02:36:51.782Z,85634.81
2023-02-02T02:39:19.141Z,85634.13
2023-02-02T02:41:49.276Z,85616.91
2023-02-02T02:44:17.061Z,85241.09
2023-02-02T02:46:46.859Z,85626.00
2023-02-02T02:49:14.224Z,85622.06
2023-02-02T02:51:41.040Z,85626.41
2023-02-02T02:54:08.869Z,85616.34
2023-02-02T02:56:55.550Z,85626.59
2023-02-02T02:59:46.486Z,85631.97
2023-02-02T03:02:17.111Z,85619.19
2023-02-02T03:04:48.133Z,85627.53
2023-02-02T03:07:26.854Z,85631.63
2023-02-02T03:09:55.280Z,85641.91
2023-02-02T03:12:22.123Z,85644.56
2023-02-02T03:14:48.947Z,85641.22
2023-02-02T03:17:15.760Z,85647.34
2023-02-02T03:19:42.517Z,85643.38
2023-02-02T03:22:09.351Z,85639.25
2023-02-02T03:24:36.077Z,85654.84
2023-02-02T03:27:03.014Z,85656.13
2023-02-02T03:29:29.939Z,85648.03
2023-02-02T03:31:56.989Z,85647.38
2023-02-02T03:34:23.853Z,85653.59
2023-02-02T03:36:50.644Z,85652.81
2023-02-02T03:39:17.474Z,85650.09
2023-02-02T03:41:44.261Z,85654.16
2023-02-02T03:44:11.131Z,85652.16
2023-02-02T03:46:38.001Z,85643.38
2023-02-02T03:49:04.892Z,85643.31
2023-02-02T03:51:31.761Z,85643.53
2023-02-02T03:53:58.608Z,85633.19
2023-02-02T03:56:25.406Z,85624.34
2023-02-02T03:58:52.199Z,85628.91
2023-02-02T04:01:26.483Z,85625.31
2023-02-02T04:03:53.488Z,85640.88
2023-02-02T04:06:20.779Z,85633.31
2023-02-02T04:08:47.675Z,85633.41
2023-02-02T04:11:14.528Z,85630.69
2023-02-02T04:13:43.536Z,85631.28
2023-02-02T04:16:10.779Z,85630.16
2023-02-02T04:18:40.481Z,85612.38
2023-02-02T04:21:07.812Z,85611.00
2023-02-02T04:23:35.081Z,85626.69
2023-02-02T04:26:02.032Z,85625.16
2023-02-02T04:28:29.104Z,85631.66
2023-02-02T04:30:56.642Z,85623.94
2023-02-02T04:33:24.474Z,85612.59
2023-02-02T04:35:51.570Z,85624.22
2023-02-02T04:38:18.525Z,85629.75
2023-02-02T04:40:46.319Z,85633.13
2023-02-02T04:43:13.058Z,85636.47
2023-02-02T04:45:39.952Z,85630.34
2023-02-02T04:48:06.879Z,85625.03
2023-02-02T04:50:33.718Z,85636.47
2023-02-02T04:53:00.596Z,85634.25
2023-02-02T04:55:30.670Z,85629.66
2023-02-02T04:57:57.508Z,85629.00
2023-02-02T05:00:24.946Z,85627.09
2023-02-02T05:02:51.909Z,85626.81
2023-02-02T05:05:20.538Z,85639.56
2023-02-02T05:07:47.419Z,85639.75
2023-02-02T05:10:14.315Z,85655.41
2023-02-02T05:12:41.104Z,85650.09
2023-02-02T05:15:08.143Z,85656.75
2023-02-02T05:17:34.917Z,85655.53
2023-02-02T05:20:01.738Z,85658.88
2023-02-02T05:22:28.722Z,85652.00
2023-02-02T05:24:55.497Z,85651.47
2023-02-02T05:27:22.361Z,85651.38
2023-02-02T05:29:49.275Z,85660.91
2023-02-02T05:32:16.298Z,85665.00
2023-02-02T05:34:43.064Z,85657.38
2023-02-02T05:37:09.924Z,85660.91
2023-02-02T05:39:36.686Z,85661.66
2023-02-02T05:42:03.666Z,85659.47
2023-02-02T05:44:30.698Z,85661.91
2023-02-02T05:46:57.496Z,85672.19
2023-02-02T05:49:24.481Z,85667.28
2023-02-02T05:51:53.974Z,85669.78
2023-02-02T05:54:20.937Z,85670.47
2023-02-02T05:56:48.813Z,85677.97
2023-02-02T05:59:15.658Z,85673.94
2023-02-02T06:01:45.811Z,85681.91
2023-02-02T06:04:13.083Z,85683.41
2023-02-02T06:06:40.095Z,85682.97
2023-02-02T06:09:07.353Z,85678.88
2023-02-02T06:11:34.516Z,85685.25
2023-02-02T06:14:01.637Z,85680.47
2023-02-02T06:16:28.503Z,85685.22
2023-02-02T06:18:55.522Z,85668.72
2023-02-02T06:21:24.714Z,85676.53
2023-02-02T06:23:52.182Z,85680.59
2023-02-02T06:26:19.458Z,85689.38
2023-02-02T06:28:50.568Z,85687.50
2023-02-02T06:31:20.645Z,85684.88
2023-02-02T06:33:54.102Z,85683.69
2023-02-02T06:36:21.616Z,85689.25
2023-02-02T06:38:49.500Z,85690.63
2023-02-02T06:41:16.330Z,85684.66
2023-02-02T06:43:43.610Z,85683.38
2023-02-02T06:46:10.424Z,85678.06
2023-02-02T06:48:37.359Z,85681.56
2023-02-02T06:51:05.685Z,85680.97
2023-02-02T06:53:33.065Z,85683.09
2023-02-02T06:56:01.403Z,85692.06
2023-02-02T06:58:28.363Z,85686.75
2023-02-02T07:00:55.254Z,85690.88
2023-02-02T07:03:22.532Z,85699.09
2023-02-02T07:05:50.138Z,85699.84
2023-02-02T07:08:17.235Z,85699.19
2023-02-02T07:11:13.087Z,85704.13
2023-02-02T07:13:31.796Z,85707.78
2023-02-02T07:15:58.795Z,85703.13
2023-02-02T07:18:25.791Z,85712.81
2023-02-02T07:20:52.675Z,85705.56
2023-02-02T07:23:19.553Z,85711.00
2023-02-02T07:25:46.419Z,85719.41
2023-02-02T07:28:13.264Z,85714.06
2023-02-02T07:30:40.101Z,85714.31
2023-02-02T07:33:06.946Z,85723.09
2023-02-02T07:35:34.008Z,85723.94
2023-02-02T07:38:00.798Z,85724.00
2023-02-02T07:40:27.676Z,85712.69
2023-02-02T07:42:54.565Z,85715.00
2023-02-02T07:45:27.095Z,85722.63
2023-02-02T07:47:58.177Z,85711.19
2023-02-02T07:50:25.602Z,85723.81
2023-02-02T07:52:52.867Z,85725.25
2023-02-02T07:55:20.190Z,85715.13
2023-02-02T07:57:47.105Z,85727.50
2023-02-02T08:00:14.343Z,85714.53
2023-02-02T08:02:41.321Z,85724.50
2023-02-02T08:05:08.423Z,85728.81
2023-02-02T08:07:35.309Z,85727.66
2023-02-02T08:10:02.204Z,85723.63
2023-02-02T08:12:29.120Z,85725.28
2023-02-02T08:14:56.197Z,85726.81
2023-02-02T08:17:23.677Z,85737.44
2023-02-02T08:19:50.844Z,85726.81
2023-02-02T08:22:20.218Z,85731.22
2023-02-02T08:24:48.182Z,85737.47
2023-02-02T08:27:16.461Z,85731.50
2023-02-02T08:29:43.767Z,85733.03
2023-02-02T08:32:10.844Z,85737.19
2023-02-02T08:34:37.941Z,85727.81
2023-02-02T08:37:04.865Z,85733.28
2023-02-02T08:39:31.772Z,85737.72
2023-02-02T08:41:58.543Z,85736.56
2023-02-02T08:44:28.146Z,85740.78
2023-02-02T08:47:11.960Z,85736.78
2023-02-02T08:49:38.866Z,85743.72
2023-02-02T08:52:05.823Z,85741.09
2023-02-02T08:54:32.689Z,85741.88
2023-02-02T08:56:59.547Z,85749.47
2023-02-02T08:59:26.475Z,85748.84
2023-02-02T09:01:53.387Z,85741.94
2023-02-02T09:04:20.199Z,85741.22
2023-02-02T09:06:47.123Z,85742.56
2023-02-02T09:09:15.014Z,85744.75
2023-02-02T09:11:42.431Z,85737.03
2023-02-02T09:14:12.158Z,85735.16
2023-02-02T09:16:39.287Z,85727.78
2023-02-02T09:19:06.502Z,85725.16
2023-02-02T09:21:37.291Z,85723.75
2023-02-02T09:24:11.928Z,85710.81
2023-02-02T09:26:40.633Z,85716.50
2023-02-02T09:29:08.599Z,85718.63
2023-02-02T09:31:36.717Z,85714.63
2023-02-02T09:34:09.909Z,85710.66
2023-02-02T09:36:37.393Z,85710.59
2023-02-02T09:39:04.688Z,85704.44
2023-02-02T09:41:56.004Z,85699.78
2023-02-02T09:44:25.867Z,85702.47
2023-02-02T09:47:11.342Z,85700.53
2023-02-02T09:49:47.609Z,85700.56
2023-02-02T09:52:18.501Z,85694.34
2023-02-02T09:54:47.784Z,85678.00
2023-02-02T09:57:21.256Z,85679.50
2023-02-02T09:59:49.945Z,85671.25
2023-02-02T10:02:24.867Z,85665.09
2023-02-02T10:04:54.844Z,85658.31
2023-02-02T10:07:26.827Z,85657.69
2023-02-02T10:09:57.445Z,85661.84
2023-02-02T10:12:24.348Z,85651.59
2023-02-02T10:14:59.068Z,85652.28
2023-02-02T10:17:34.923Z,85659.25
2023-02-02T10:20:06.558Z,85653.84
2023-02-02T10:22:34.554Z,85656.59
2023-02-02T10:25:01.506Z,85642.28
2023-02-02T10:27:37.403Z,85653.97
2023-02-02T10:30:07.832Z,85657.28
2023-02-02T10:32:38.969Z,85648.41
2023-02-02T10:35:17.237Z,85637.53
2023-02-02T10:37:44.123Z,85639.56
2023-02-02T10:40:24.556Z,85649.88
2023-02-02T10:43:28.879Z,85642.38
2023-02-02T10:45:56.931Z,85644.47
2023-02-02T10:48:30.431Z,85632.16
2023-02-02T10:50:59.667Z,85636.31
2023-02-02T10:53:28.913Z,85631.47
2023-02-02T10:56:13.305Z,85637.00
2023-02-02T10:58:57.985Z,85631.47
2023-02-02T11:01:25.075Z,85623.91
2023-02-02T11:04:11.928Z,85625.97
2023-02-02T11:06:52.516Z,85622.63
2023-02-02T11:09:24.157Z,85618.47
2023-02-02T11:11:52.222Z,85631.53
2023-02-02T11:14:30.465Z,85617.06
2023-02-02T11:17:02.424Z,85623.97
2023-02-02T11:19:30.571Z,85617.16
2023-02-02T11:21:58.538Z,85614.38
2023-02-02T11:24:29.818Z,85611.59
2023-02-02T11:26:56.815Z,85608.84
2023-02-02T11:29:37.482Z,85615.72
2023-02-02T11:32:19.814Z,85612.94
2023-02-02T11:34:47.498Z,85607.44
2023-02-02T11:37:23.752Z,85605.38
2023-02-02T11:39:53.044Z,85600.59
2023-02-02T11:42:22.085Z,85600.59
2023-02-02T11:44:53.695Z,85595.13
2023-02-02T11:47:22.618Z,85588.94
2023-02-02T11:49:52.127Z,85591.69
2023-02-02T11:52:22.230Z,85597.81
2023-02-02T11:54:50.651Z,85586.16
2023-02-02T11:57:24.421Z,85600.56
2023-02-02T11:59:52.210Z,85585.53
2023-02-02T12:02:25.034Z,85588.28
2023-02-02T12:04:56.453Z,85589.66
2023-02-02T12:07:26.001Z,85578.69
2023-02-02T12:09:53.250Z,85582.81
2023-02-02T12:12:29.358Z,85586.94
2023-02-02T12:15:11.527Z,85568.41
2023-02-02T12:17:42.264Z,85573.84
2023-02-02T12:20:28.422Z,85573.19
2023-02-02T12:23:10.411Z,85573.81
2023-02-02T12:25:48.889Z,85584.09
2023-02-02T12:28:21.160Z,85578.53
2023-02-02T12:30:51.070Z,85577.91
2023-02-02T12:33:21.049Z,85581.31
2023-02-02T12:36:06.873Z,85584.75
2023-02-02T12:38:55.496Z,85577.25
2023-02-02T12:41:22.433Z,85584.78
2023-02-02T12:43:51.691Z,85580.66
2023-02-02T12:46:33.552Z,85574.47
2023-02-02T12:49:00.396Z,85581.31
2023-02-02T12:52:06.104Z,85574.47
2023-02-02T12:54:46.217Z,85579.25
2023-02-02T12:57:18.430Z,85582.69
2023-02-02T12:59:45.256Z,85577.25
2023-02-02T13:02:18.028Z,85588.88
2023-02-02T13:04:51.049Z,85589.47
2023-02-02T13:07:35.563Z,85592.25
2023-02-02T13:10:17.980Z,85595.03
2023-02-02T13:12:48.271Z,85601.94
2023-02-02T13:15:18.889Z,85595.75
2023-02-02T13:17:51.847Z,85599.19
2023-02-02T13:20:23.246Z,85594.38
2023-02-02T13:22:53.184Z,85604.69
2023-02-02T13:25:27.851Z,85601.81
2023-02-02T13:27:55.590Z,85599.09
2023-02-02T13:30:31.893Z,85590.22
2023-02-02T13:33:00.413Z,85599.81
2023-02-02T13:35:33.365Z,85593.66
2023-02-02T13:38:12.679Z,85583.84
2023-02-02T13:40:40.821Z,85581.84
2023-02-02T13:43:16.935Z,85578.44
2023-02-02T13:46:02.753Z,85579.84
2023-02-02T13:48:29.738Z,85578.34
2023-02-02T13:50:59.528Z,85581.16
2023-02-02T13:53:52.020Z,85577.75
2023-02-02T13:56:25.463Z,85577.09
2023-02-02T13:58:58.202Z,85574.34
2023-02-02T14:01:25.803Z,85581.19
2023-02-02T14:03:54.358Z,85570.25
2023-02-02T14:06:22.659Z,85580.53
2023-02-02T14:08:52.982Z,85579.91
2023-02-02T14:11:42.608Z,85575.78
2023-02-02T14:14:32.367Z,85574.44
2023-02-02T14:17:00.095Z,85574.44
2023-02-02T14:19:36.014Z,85575.16
2023-02-02T14:22:09.257Z,85577.22
2023-02-02T14:24:36.044Z,85573.03
2023-02-02T14:27:05.693Z,85566.84
2023-02-02T14:29:32.822Z,85572.34
2023-02-02T14:32:18.635Z,85569.56
2023-02-02T14:34:45.669Z,85577.72
2023-02-02T14:37:24.784Z,85568.75
2023-02-02T14:39:54.376Z,85572.25
2023-02-02T14:42:39.938Z,85570.16
2023-02-02T14:45:15.947Z,85577.00
2023-02-02T14:47:42.800Z,85577.00
2023-02-02T14:50:14.555Z,85574.22
2023-02-02T14:52:41.816Z,85567.31
2023-02-02T14:55:19.194Z,85560.44
2023-02-02T14:57:53.496Z,85569.34
2023-02-02T15:00:25.035Z,85565.84
2023-02-02T15:02:55.066Z,85556.31
2023-02-02T15:05:34.302Z,85563.06
2023-02-02T15:08:13.075Z,85560.19
2023-02-02T15:10:55.039Z,85544.50
2023-02-02T15:13:27.203Z,85547.94
2023-02-02T15:16:04.378Z,85547.28
2023-02-02T15:18:37.869Z,85549.44
2023-02-02T15:21:06.487Z,85553.47
2023-02-02T15:23:44.312Z,85558.94
2023-02-02T15:26:24.584Z,85562.31
2023-02-02T15:28:51.407Z,85567.13
2023-02-02T15:31:38.769Z,85557.44
2023-02-02T15:34:31.741Z,85554.59
2023-02-02T15:37:00.244Z,85539.41
2023-02-02T15:39:30.150Z,85546.94
2023-02-02T15:42:17.213Z,85548.97
2023-02-02T15:44:44.230Z,85550.34
2023-02-02T15:47:24.788Z,85544.97
2023-02-02T15:49:52.338Z,85543.63
2023-02-02T15:52:27.493Z,85553.25
2023-02-02T15:54:54.397Z,85561.44
2023-02-02T15:57:25.160Z,85564.09
2023-02-02T15:59:52.237Z,85572.97
2023-02-02T16:02:28.419Z,85566.75
2023-02-02T16:04:55.357Z,85568.81
2023-02-02T16:07:28.035Z,85571.53
2023-02-02T16:09:55.103Z,85576.28
2023-02-02T16:12:23.622Z,85582.53
2023-02-02T16:14:52.197Z,85577.78
2023-02-02T16:17:22.151Z,85571.59
2023-02-02T16:19:57.974Z,85578.47
2023-02-02T16:22:25.735Z,85592.88
2023-02-02T16:24:54.291Z,85587.31
2023-02-02T16:27:23.872Z,85580.47
2023-02-02T16:29:51.133Z,85586.75
2023-02-02T16:32:31.602Z,85597.06
2023-02-02T16:34:59.072Z,85594.19
2023-02-02T16:37:32.504Z,85598.97
2023-02-02T16:40:18.874Z,85601.66
2023-02-02T16:42:45.747Z,85607.69
2023-02-02T16:45:34.012Z,85605.72
2023-02-02T16:48:33.453Z,85604.94
2023-02-02T16:51:23.482Z,85617.06
2023-02-02T16:54:13.922Z,85611.66
2023-02-02T16:56:42.297Z,85615.78
2023-02-02T16:59:18.143Z,85617.22
2023-02-02T17:01:49.180Z,85616.47
2023-02-02T17:04:24.088Z,85621.13
2023-02-02T17:06:53.168Z,85622.63
2023-02-02T17:09:27.644Z,85617.09
2023-02-02T17:11:55.558Z,85635.56
2023-02-02T17:14:33.102Z,85636.94
2023-02-02T17:17:00.407Z,85644.34
2023-02-02T17:19:30.468Z,85648.06
2023-02-02T17:21:59.840Z,85645.47
2023-02-02T17:24:27.149Z,85657.63
2023-02-02T17:26:54.289Z,85631.47
2023-02-02T17:29:21.854Z,85656.31
2023-02-02T17:31:48.752Z,85656.34
2023-02-02T17:34:15.770Z,85659.25
2023-02-02T17:36:43.389Z,85657.75
2023-02-02T17:39:11.668Z,85662.44
2023-02-02T17:41:39.356Z,85660.53
2023-02-02T17:44:06.987Z,85650.19
2023-02-02T17:46:35.137Z,85661.25
2023-02-02T17:49:02.211Z,85667.97
2023-02-02T17:51:38.607Z,85663.25
2023-02-02T17:54:09.172Z,85666.41
2023-02-02T17:56:35.972Z,85665.78
2023-02-02T17:59:02.815Z,85663.81
2023-02-02T18:01:29.713Z,85666.63
2023-02-02T18:03:56.567Z,85660.50
2023-02-02T18:06:26.422Z,85667.34
2023-02-02T18:08:53.451Z,85679.72
2023-02-02T18:11:20.307Z,85683.78
2023-02-02T18:13:47.210Z,85694.78
2023-02-02T18:16:14.108Z,85682.50
2023-02-02T18:18:41.034Z,85686.59
2023-02-02T18:21:09.756Z,85674.19
2023-02-02T18:23:37.558Z,85681.41
2023-02-02T18:26:10.399Z,85682.31
2023-02-02T18:28:38.308Z,85681.00
2023-02-02T18:31:09.293Z,85683.69
2023-02-02T18:33:37.257Z,85682.34
2023-02-02T18:36:12.099Z,85694.72
2023-02-02T18:38:39.592Z,85691.97
2023-02-02T18:41:06.461Z,85696.75
2023-02-02T18:43:33.508Z,85712.38
2023-02-02T18:46:01.690Z,85741.78
2023-02-02T18:48:29.564Z,85723.72
2023-02-02T18:50:56.479Z,85679.38
2023-02-02T18:53:23.489Z,85672.41
2023-02-02T18:55:50.316Z,85686.09
2023-02-02T18:58:17.232Z,85688.00
2023-02-02T19:00:50.395Z,85686.69
2023-02-02T19:03:17.553Z,85692.91
2023-02-02T19:06:03.059Z,85683.94
2023-02-02T19:08:30.394Z,85686.09
2023-02-02T19:11:00.640Z,85677.94
2023-02-02T19:13:28.930Z,85665.59
2023-02-02T19:15:55.936Z,85676.59
2023-02-02T19:18:23.770Z,85716.25
2023-02-02T19:20:51.742Z,85702.59
2023-02-02T19:23:23.447Z,85725.88
2023-02-02T19:25:51.892Z,85726.56
2023-02-02T19:28:27.345Z,85732.63
2023-02-02T19:30:55.422Z,85724.25
2023-02-02T19:33:34.131Z,85726.34
2023-02-02T19:36:01.069Z,85739.38
2023-02-02T19:38:29.605Z,85747.63
2023-02-02T19:40:56.508Z,85737.84
2023-02-02T19:43:30.156Z,85742.72
2023-02-02T19:45:59.321Z,85766.53
2023-02-02T19:48:27.600Z,85766.41
2023-02-02T19:50:55.929Z,85766.38
2023-02-02T19:53:24.465Z,85759.44
2023-02-02T19:55:52.053Z,85766.09
2023-02-02T19:58:23.569Z,85752.88
2023-02-02T20:00:51.314Z,85754.88
2023-02-02T20:03:18.270Z,85739.88
2023-02-02T20:05:49.551Z,85739.97
2023-02-02T20:08:25.716Z,85734.53
2023-02-02T20:10:58.328Z,85745.34
2023-02-02T20:13:34.234Z,85744.06
2023-02-02T20:16:04.316Z,85757.75
2023-02-02T20:18:42.775Z,85756.31
2023-02-02T20:21:17.504Z,85750.47
2023-02-02T20:23:45.297Z,85753.31
2023-02-02T20:26:34.416Z,85765.41
2023-02-02T20:29:13.032Z,85757.09
2023-02-02T20:31:40.083Z,85738.22
2023-02-02T20:34:25.359Z,85739.69
2023-02-02T20:36:53.363Z,85728.03
2023-02-02T20:39:28.063Z,85734.75
2023-02-02T20:41:56.657Z,85735.41
2023-02-02T20:44:25.742Z,85728.44
2023-02-02T20:46:52.862Z,85733.84
2023-02-02T20:49:22.462Z,85721.19
2023-02-02T20:51:49.464Z,85731.00
2023-02-02T20:54:16.301Z,85729.81
2023-02-02T20:56:43.285Z,85737.38
2023-02-02T20:59:10.102Z,85710.06
2023-02-02T21:01:37.055Z,85727.31
2023-02-02T21:04:07.224Z,85721.88
2023-02-02T21:06:34.678Z,85722.00
2023-02-02T21:09:05.604Z,85727.25
2023-02-02T21:11:33.146Z,85716.28
2023-02-02T21:14:00.490Z,85717.41
2023-02-02T21:16:27.712Z,85716.19
2023-02-02T21:18:55.062Z,85709.44
2023-02-02T21:21:22.896Z,85713.19
2023-02-02T21:23:51.613Z,85698.31
2023-02-02T21:26:20.799Z,85702.56
2023-02-02T21:28:48.361Z,85699.81
2023-02-02T21:31:16.424Z,85707.38
2023-02-02T21:33:44.212Z,85703.25
2023-02-02T21:36:29.676Z,85699.84
2023-02-02T21:39:02.059Z,85705.09
2023-02-02T21:41:30.438Z,85706.38
2023-02-02T21:43:58.610Z,85703.53
2023-02-02T21:46:29.702Z,85698.09
2023-02-02T21:48:56.619Z,85693.97
2023-02-02T21:51:34.252Z,85702.13
2023-02-02T21:54:13.381Z,85697.84
2023-02-02T21:56:40.720Z,85696.47
2023-02-02T21:59:11.915Z,85700.66
2023-02-02T22:01:42.458Z,85692.19
2023-02-02T22:04:18.554Z,85688.94
2023-02-02T22:06:46.841Z,85691.63
2023-02-02T22:09:13.666Z,85697.84
2023-02-02T22:12:00.885Z,85685.28
2023-02-02T22:14:40.783Z,85694.81
2023-02-02T22:17:17.433Z,85696.84
2023-02-02T22:19:44.475Z,85691.91
2023-02-02T22:22:22.156Z,85678.09
2023-02-02T22:25:07.672Z,85691.50
2023-02-02T22:27:54.869Z,85690.06
2023-02-02T22:30:41.000Z,85686.16
2023-02-02T22:33:09.571Z,85684.50
2023-02-02T22:35:36.837Z,85681.34
2023-02-02T22:38:04.040Z,85671.28
2023-02-02T22:40:34.308Z,85669.75
2023-02-02T22:43:05.901Z,85676.44
2023-02-02T22:45:32.955Z,85669.81
2023-02-02T22:48:00.139Z,85669.75
2023-02-02T22:50:28.609Z,85660.28
2023-02-02T22:52:55.877Z,85672.34
2023-02-02T22:55:22.810Z,85674.13
2023-02-02T22:57:49.930Z,85670.91
2023-02-02T23:00:18.910Z,85680.44
2023-02-02T23:02:45.775Z,85679.13
2023-02-02T23:05:13.705Z,85673.13
2023-02-02T23:07:44.112Z,85662.13
2023-02-02T23:10:12.501Z,85664.28
2023-02-02T23:12:40.106Z,85665.41
2023-02-02T23:15:07.504Z,85691.91
2023-02-02T23:17:35.507Z,85711.75
2023-02-02T23:20:05.886Z,85697.31
2023-02-02T23:22:32.840Z,85694.50
2023-02-02T23:25:01.629Z,85706.25
2023-02-02T23:27:28.450Z,85688.63
2023-02-02T23:29:55.348Z,85684.38
2023-02-02T23:32:22.153Z,85663.28
2023-02-02T23:34:49.223Z,85644.88
2023-02-02T23:37:16.146Z,85655.13
2023-02-02T23:39:43.150Z,85658.59
2023-02-02T23:42:09.937Z,85658.53
2023-02-02T23:44:36.807Z,85673.53
2023-02-02T23:47:04.253Z,85690.19
2023-02-02T23:49:31.831Z,85691.22
2023-02-02T23:51:58.912Z,85690.66
2023-02-02T23:54:26.148Z,85702.94
2023-02-02T23:56:53.069Z,85704.97
2023-02-02T23:59:19.952Z,85698.03
